createdAt,value
2018-02-07T00:01:42.416Z,97149.16
2018-02-07T00:04:10.693Z,97153.82
2018-02-07T00:06:38.963Z,97143.80
2018-02-07T00:09:07.999Z,97147.34
2018-02-07T00:11:36.299Z,97143.28
2018-02-07T00:14:04.612Z,97135.31
2018-02-07T00:16:32.891Z,97142.42
2018-02-07T00:19:01.155Z,97142.95
2018-02-07T00:21:29.433Z,97144.92
2018-02-07T00:23:57.695Z,97137.80
2018-02-07T00:26:27.484Z,97134.78
2018-02-07T00:28:55.748Z,97136.80
2018-02-07T00:31:24.022Z,97140.99
2018-02-07T00:33:52.939Z,97142.27
2018-02-07T00:36:21.215Z,97142.47
2018-02-07T00:38:49.484Z,97141.33
2018-02-07T00:41:18.531Z,97142.59
2018-02-07T00:43:46.808Z,97145.84
2018-02-07T00:46:15.082Z,97150.06
2018-02-07T00:48:43.359Z,97145.95
2018-02-07T00:51:12.407Z,97148.86
2018-02-07T00:53:40.711Z,97149.15
2018-02-07T00:56:08.972Z,97142.59
2018-02-07T00:58:37.259Z,97147.88
2018-02-07T01:01:05.529Z,97150.32
2018-02-07T01:03:33.824Z,97148.45
2018-02-07T01:06:02.852Z,97157.25
2018-02-07T01:08:31.123Z,97159.61
2018-02-07T01:10:59.384Z,97166.73
2018-02-07T01:13:27.663Z,97166.75
2018-02-07T01:15:55.927Z,97165.60
2018-02-07T01:18:24.202Z,97166.13
2018-02-07T01:20:52.464Z,97170.81
2018-02-07T01:23:21.515Z,97165.47
2018-02-07T01:25:49.784Z,97164.47
2018-02-07T01:28:18.090Z,97171.43
2018-02-07T01:30:46.394Z,97167.84
2018-02-07T01:33:14.682Z,97171.13
2018-02-07T01:35:43.713Z,97162.88
2018-02-07T01:38:14.296Z,97169.14
2018-02-07T01:40:42.569Z,97172.36
2018-02-07T01:43:11.607Z,97168.94
2018-02-07T01:45:39.869Z,97171.05
2018-02-07T01:48:08.921Z,97172.65
2018-02-07T01:50:37.185Z,97170.94
2018-02-07T01:53:05.479Z,97170.58
2018-02-07T01:55:33.751Z,97170.25
2018-02-07T01:58:02.037Z,97172.36
2018-02-07T02:00:31.064Z,97167.55
2018-02-07T02:02:59.323Z,97171.51
2018-02-07T02:05:28.357Z,97175.45
2018-02-07T02:07:56.614Z,97172.16
2018-02-07T02:10:24.906Z,97170.36
2018-02-07T02:12:53.927Z,97176.14
2018-02-07T02:15:22.209Z,97173.55
2018-02-07T02:17:54.203Z,97173.13
2018-02-07T02:20:22.480Z,97174.15
2018-02-07T02:22:51.512Z,97176.39
2018-02-07T02:25:19.808Z,97180.98
2018-02-07T02:27:48.063Z,97175.03
2018-02-07T02:30:17.114Z,97179.76
2018-02-07T02:32:45.429Z,97169.67
2018-02-07T02:35:13.729Z,97174.80
2018-02-07T02:37:41.989Z,97171.50
2018-02-07T02:40:10.268Z,97174.92
2018-02-07T02:42:38.536Z,97176.22
2018-02-07T02:45:06.823Z,97170.94
2018-02-07T02:47:35.160Z,97167.28
2018-02-07T02:50:03.455Z,97170.98
2018-02-07T02:52:31.716Z,97170.33
2018-02-07T02:54:59.996Z,97166.62
2018-02-07T02:57:28.282Z,97168.16
2018-02-07T02:59:57.502Z,97173.45
2018-02-07T03:02:25.776Z,97177.45
2018-02-07T03:04:54.047Z,97181.07
2018-02-07T03:07:23.079Z,97183.03
2018-02-07T03:09:51.415Z,97185.06
2018-02-07T03:12:19.686Z,97191.53
2018-02-07T03:14:48.805Z,97191.45
2018-02-07T03:17:17.056Z,97194.50
2018-02-07T03:19:45.334Z,97192.59
2018-02-07T03:22:14.359Z,97195.27
2018-02-07T03:24:42.658Z,97191.17
2018-02-07T03:27:10.935Z,97185.78
2018-02-07T03:29:39.224Z,97190.40
2018-02-07T03:32:08.273Z,97183.63
2018-02-07T03:34:36.563Z,97188.12
2018-02-07T03:37:04.854Z,97184.00
2018-02-07T03:39:33.136Z,97185.78
2018-02-07T03:42:01.447Z,97191.77
2018-02-07T03:44:29.705Z,97184.41
2018-02-07T03:46:57.978Z,97186.06
2018-02-07T03:49:26.241Z,97182.16
2018-02-07T03:51:55.283Z,97180.05
2018-02-07T03:54:23.552Z,97183.70
2018-02-07T03:56:51.828Z,97204.94
2018-02-07T03:59:20.878Z,97192.08
2018-02-07T04:01:49.159Z,97182.02
2018-02-07T04:04:17.438Z,97192.73
2018-02-07T04:06:45.716Z,97191.19
2018-02-07T04:09:13.984Z,97192.81
2018-02-07T04:11:43.029Z,97199.06
2018-02-07T04:14:11.290Z,97199.22
2018-02-07T04:16:40.343Z,97201.92
2018-02-07T04:19:08.624Z,97203.43
2018-02-07T04:21:36.929Z,97204.70
2018-02-07T04:24:05.208Z,97206.22
2018-02-07T04:26:33.487Z,97209.15
2018-02-07T04:29:01.750Z,97191.69
2018-02-07T04:31:30.024Z,97197.63
2018-02-07T04:33:58.294Z,97199.56
2018-02-07T04:36:26.576Z,97201.20
2018-02-07T04:38:55.603Z,97202.88
2018-02-07T04:41:24.657Z,97199.36
2018-02-07T04:43:53.010Z,97205.80
2018-02-07T04:46:22.037Z,97203.00
2018-02-07T04:48:50.320Z,97197.14
2018-02-07T04:51:18.603Z,97199.27
2018-02-07T04:53:47.633Z,97203.20
2018-02-07T04:56:15.908Z,97199.45
2018-02-07T04:58:44.188Z,97204.72
2018-02-07T05:01:12.439Z,97200.78
2018-02-07T05:03:40.715Z,97198.77
2018-02-07T05:06:09.808Z,97207.89
2018-02-07T05:08:38.094Z,97194.55
2018-02-07T05:11:06.376Z,97197.86
2018-02-07T05:13:34.699Z,97202.00
2018-02-07T05:16:02.976Z,97197.67
2018-02-07T05:18:31.289Z,97198.21
2018-02-07T05:20:59.579Z,97198.80
2018-02-07T05:23:27.867Z,97196.64
2018-02-07T05:25:56.131Z,97204.14
2018-02-07T05:28:24.420Z,97202.82
2018-02-07T05:30:52.744Z,97200.76
2018-02-07T05:33:21.037Z,97203.49
2018-02-07T05:35:49.312Z,97198.95
2018-02-07T05:38:17.611Z,97198.83
2018-02-07T05:40:45.875Z,97193.75
2018-02-07T05:43:14.160Z,97202.48
2018-02-07T05:45:42.419Z,97206.23
2018-02-07T05:48:10.700Z,97207.02
2018-02-07T05:50:39.727Z,97209.27
2018-02-07T05:53:08.016Z,97217.66
2018-02-07T05:55:36.310Z,97224.06
2018-02-07T05:58:04.639Z,97218.96
2018-02-07T06:00:32.954Z,97217.17
2018-02-07T06:03:02.042Z,97225.14
2018-02-07T06:05:30.304Z,97221.08
2018-02-07T06:07:59.370Z,97227.30
2018-02-07T06:10:27.643Z,97230.36
2018-02-07T06:12:56.683Z,97236.70
2018-02-07T06:15:24.968Z,97233.86
2018-02-07T06:17:53.243Z,97237.30
2018-02-07T06:20:21.587Z,97237.03
2018-02-07T06:22:49.861Z,97243.46
2018-02-07T06:25:18.140Z,97248.80
2018-02-07T06:27:46.391Z,97247.28
2018-02-07T06:30:15.446Z,97250.76
2018-02-07T06:32:43.729Z,97245.95
2018-02-07T06:35:12.081Z,97246.94
2018-02-07T06:37:41.132Z,97250.70
2018-02-07T06:40:09.440Z,97252.52
2018-02-07T06:42:37.711Z,97257.08
2018-02-07T06:45:06.032Z,97261.82
2018-02-07T06:47:34.398Z,97259.38
2018-02-07T06:50:02.678Z,97268.00
2018-02-07T06:52:30.950Z,97264.84
2018-02-07T06:54:59.231Z,97261.12
2018-02-07T06:57:27.521Z,97267.20
2018-02-07T06:59:55.796Z,97263.30
2018-02-07T07:02:24.823Z,97271.01
2018-02-07T07:04:53.119Z,97274.25
2018-02-07T07:07:21.395Z,97271.91
2018-02-07T07:09:49.696Z,97271.16
2018-02-07T07:12:17.976Z,97276.01
2018-02-07T07:14:46.261Z,97272.87
2018-02-07T07:17:14.523Z,97286.92
2018-02-07T07:19:43.576Z,97296.38
2018-02-07T07:22:11.864Z,97308.08
2018-02-07T07:24:40.158Z,97310.33
2018-02-07T07:27:08.444Z,97319.13
2018-02-07T07:29:36.842Z,97322.95
2018-02-07T07:32:05.162Z,97315.41
2018-02-07T07:34:33.534Z,97321.81
2018-02-07T07:37:01.835Z,97327.20
2018-02-07T07:39:30.868Z,97313.62
2018-02-07T07:41:59.919Z,97311.14
2018-02-07T07:44:28.220Z,97316.06
2018-02-07T07:46:56.507Z,97313.33
2018-02-07T07:49:24.772Z,97320.47
2018-02-07T07:51:53.054Z,97323.77
2018-02-07T07:54:21.334Z,97322.46
2018-02-07T07:56:50.387Z,97321.23
2018-02-07T07:59:18.652Z,97327.49
2018-02-07T08:01:46.922Z,97336.91
2018-02-07T08:04:15.193Z,97331.06
2018-02-07T08:06:43.485Z,97346.52
2018-02-07T08:09:11.769Z,97338.77
2018-02-07T08:11:40.058Z,97336.06
2018-02-07T08:14:08.344Z,97332.92
2018-02-07T08:16:36.667Z,97338.67
2018-02-07T08:19:04.978Z,97341.95
2018-02-07T08:21:34.389Z,97341.66
2018-02-07T08:24:02.686Z,97346.24
2018-02-07T08:26:30.965Z,97346.91
2018-02-07T08:28:59.237Z,97344.64
2018-02-07T08:31:27.515Z,97346.33
2018-02-07T08:33:56.553Z,97353.01
2018-02-07T08:36:24.849Z,97353.19
2018-02-07T08:38:53.127Z,97349.67
2018-02-07T08:41:21.407Z,97354.94
2018-02-07T08:43:49.701Z,97352.65
2018-02-07T08:46:17.998Z,97351.84
2018-02-07T08:48:46.258Z,97354.28
2018-02-07T08:51:14.521Z,97362.67
2018-02-07T08:53:42.848Z,97356.05
2018-02-07T08:56:11.116Z,97368.05
2018-02-07T08:58:40.177Z,97366.70
2018-02-07T09:01:08.620Z,97369.16
2018-02-07T09:03:37.691Z,97360.81
2018-02-07T09:06:05.956Z,97366.25
2018-02-07T09:08:35.026Z,97358.46
2018-02-07T09:11:04.088Z,97363.31
2018-02-07T09:13:32.381Z,97361.09
2018-02-07T09:16:00.655Z,97357.76
2018-02-07T09:18:28.943Z,97357.13
2018-02-07T09:20:57.210Z,97352.81
2018-02-07T09:23:25.484Z,97360.75
2018-02-07T09:25:53.743Z,97358.35
2018-02-07T09:28:22.048Z,97356.12
2018-02-07T09:30:51.667Z,97352.14
2018-02-07T09:33:20.742Z,97356.75
2018-02-07T09:35:49.055Z,97361.17
2018-02-07T09:38:17.316Z,97356.64
2018-02-07T09:40:45.576Z,97357.54
2018-02-07T09:43:13.862Z,97364.61
2018-02-07T09:45:42.124Z,97356.13
2018-02-07T09:48:11.171Z,97362.44
2018-02-07T09:50:39.435Z,97370.14
2018-02-07T09:53:08.523Z,97372.99
2018-02-07T09:55:36.775Z,97372.37
2018-02-07T09:58:05.083Z,97376.70
2018-02-07T10:00:33.366Z,97365.05
2018-02-07T10:03:02.419Z,97378.30
2018-02-07T10:05:30.689Z,97371.02
2018-02-07T10:07:58.974Z,97374.14
2018-02-07T10:10:27.255Z,97383.69
2018-02-07T10:12:55.523Z,97376.42
2018-02-07T10:15:23.822Z,97382.28
2018-02-07T10:17:52.099Z,97381.03
2018-02-07T10:20:20.388Z,97380.09
2018-02-07T10:22:49.391Z,97377.67
2018-02-07T10:25:17.724Z,97381.26
2018-02-07T10:27:46.767Z,97387.45
2018-02-07T10:30:15.034Z,97386.45
2018-02-07T10:32:44.060Z,97382.83
2018-02-07T10:35:12.323Z,97384.39
2018-02-07T10:37:41.358Z,97389.56
2018-02-07T10:40:09.676Z,97383.93
2018-02-07T10:42:37.968Z,97387.61
2018-02-07T10:45:06.291Z,97392.69
2018-02-07T10:47:36.158Z,97399.61
2018-02-07T10:50:04.492Z,97399.95
2018-02-07T10:52:32.759Z,97393.95
2018-02-07T10:55:01.807Z,97404.40
2018-02-07T10:57:30.828Z,97398.97
2018-02-07T10:59:59.851Z,97411.52
2018-02-07T11:02:28.972Z,97400.81
2018-02-07T11:04:57.268Z,97400.34
2018-02-07T11:07:25.589Z,97403.40
2018-02-07T11:09:53.846Z,97403.88
2018-02-07T11:12:22.114Z,97405.77
2018-02-07T11:14:50.396Z,97396.41
2018-02-07T11:17:18.672Z,97408.80
2018-02-07T11:19:48.430Z,97399.41
2018-02-07T11:22:16.685Z,97402.87
2018-02-07T11:24:46.472Z,97400.72
2018-02-07T11:27:14.755Z,97406.05
2018-02-07T11:29:43.036Z,97408.95
2018-02-07T11:32:11.308Z,97403.95
2018-02-07T11:34:40.355Z,97397.64
2018-02-07T11:37:08.606Z,97403.17
2018-02-07T11:39:36.875Z,97390.70
2018-02-07T11:42:05.176Z,97399.05
2018-02-07T11:44:33.434Z,97409.13
2018-02-07T11:47:02.464Z,97401.89
2018-02-07T11:49:30.711Z,97402.35
2018-02-07T11:51:58.974Z,97396.07
2018-02-07T11:54:27.262Z,97397.91
2018-02-07T11:56:55.532Z,97397.11
2018-02-07T11:59:23.800Z,97402.30
2018-02-07T12:01:52.070Z,97400.61
2018-02-07T12:04:21.101Z,97398.98
2018-02-07T12:06:49.398Z,97403.94
2018-02-07T12:09:17.660Z,97401.72
2018-02-07T12:11:46.696Z,97397.66
2018-02-07T12:14:14.959Z,97398.56
2018-02-07T12:16:43.222Z,97404.74
2018-02-07T12:19:11.521Z,97399.97
2018-02-07T12:21:40.533Z,97396.36
2018-02-07T12:24:09.551Z,97396.25
2018-02-07T12:26:37.830Z,97387.36
2018-02-07T12:29:06.874Z,97387.05
2018-02-07T12:31:35.160Z,97387.16
2018-02-07T12:34:03.477Z,97390.83
2018-02-07T12:36:31.770Z,97391.10
2018-02-07T12:39:00.060Z,97389.36
2018-02-07T12:41:28.335Z,97397.49
2018-02-07T12:43:56.588Z,97394.30
2018-02-07T12:46:24.875Z,97397.77
2018-02-07T12:48:53.899Z,97400.60
2018-02-07T12:51:22.198Z,97390.45
2018-02-07T12:53:51.232Z,97395.66
2018-02-07T12:56:20.281Z,97400.50
2018-02-07T12:58:49.292Z,97397.83
2018-02-07T13:01:17.602Z,97400.67
2018-02-07T13:03:45.879Z,97396.69
2018-02-07T13:06:14.919Z,97399.13
2018-02-07T13:08:43.204Z,97396.10
2018-02-07T13:11:11.451Z,97393.83
2018-02-07T13:13:40.486Z,97390.64
2018-02-07T13:16:08.739Z,97391.36
2018-02-07T13:18:37.787Z,97388.36
2018-02-07T13:21:06.065Z,97386.33
2018-02-07T13:23:34.386Z,97388.23
2018-02-07T13:26:03.412Z,97390.81
2018-02-07T13:28:31.691Z,97391.00
2018-02-07T13:30:59.997Z,97394.30
2018-02-07T13:33:28.258Z,97391.55
2018-02-07T13:35:56.512Z,97400.93
2018-02-07T13:38:24.896Z,97401.82
2018-02-07T13:40:53.907Z,97405.24
2018-02-07T13:43:22.184Z,97399.97
2018-02-07T13:45:51.217Z,97405.30
2018-02-07T13:48:19.494Z,97396.45
2018-02-07T13:50:47.761Z,97404.05
2018-02-07T13:53:16.821Z,97400.52
2018-02-07T13:55:45.066Z,97393.77
2018-02-07T13:58:13.408Z,97399.73
2018-02-07T14:00:47.088Z,97407.79
2018-02-07T14:03:15.384Z,97408.94
2018-02-07T14:05:43.648Z,97404.66
2018-02-07T14:08:12.684Z,97404.64
2018-02-07T14:10:40.936Z,97407.94
2018-02-07T14:13:09.984Z,97405.98
2018-02-07T14:15:38.285Z,97406.92
2018-02-07T14:18:06.572Z,97419.31
2018-02-07T14:20:34.904Z,97416.27
2018-02-07T14:23:03.180Z,97418.19
2018-02-07T14:25:31.447Z,97417.48
2018-02-07T14:27:59.704Z,97423.86
2018-02-07T14:30:27.973Z,97422.93
2018-02-07T14:32:57.023Z,97429.88
2018-02-07T14:35:25.308Z,97435.73
2018-02-07T14:37:53.567Z,97437.89
2018-02-07T14:40:21.858Z,97432.41
2018-02-07T14:42:50.168Z,97433.13
2018-02-07T14:45:18.437Z,97440.70
2018-02-07T14:47:46.697Z,97440.21
2018-02-07T14:50:14.970Z,97429.59
2018-02-07T14:52:43.231Z,97433.37
2018-02-07T14:55:11.503Z,97437.41
2018-02-07T14:57:39.763Z,97429.25
2018-02-07T15:00:08.810Z,97431.25
2018-02-07T15:02:37.098Z,97434.69
2018-02-07T15:05:05.407Z,97433.64
2018-02-07T15:07:33.686Z,97436.23
2018-02-07T15:10:01.979Z,97434.86
2018-02-07T15:12:31.228Z,97437.41
2018-02-07T15:14:59.599Z,97440.92
2018-02-07T15:17:27.890Z,97444.27
2018-02-07T15:19:56.195Z,97447.63
2018-02-07T15:22:25.363Z,97446.55
2018-02-07T15:24:53.757Z,97454.48
2018-02-07T15:27:22.033Z,97453.19
2018-02-07T15:29:50.360Z,97463.94
2018-02-07T15:32:18.649Z,97462.63
2018-02-07T15:34:48.481Z,97459.61
2018-02-07T15:37:16.767Z,97466.08
2018-02-07T15:39:45.049Z,97464.19
2018-02-07T15:42:13.386Z,97469.75
2018-02-07T15:44:42.443Z,97465.83
2018-02-07T15:47:10.734Z,97466.95
2018-02-07T15:49:39.060Z,97467.06
2018-02-07T15:52:08.149Z,97463.53
2018-02-07T15:54:36.432Z,97471.77
2018-02-07T15:59:39.204Z,97475.89
2018-02-07T16:02:07.511Z,97477.70
2018-02-07T16:04:35.811Z,97479.15
2018-02-07T16:07:04.138Z,97475.56
2018-02-07T16:09:32.400Z,97483.98
2018-02-07T16:12:00.710Z,97483.27
2018-02-07T16:14:28.963Z,97487.51
2018-02-07T16:16:57.279Z,97487.42
2018-02-07T16:19:25.574Z,97492.00
2018-02-07T16:21:53.882Z,97496.63
2018-02-07T16:24:22.918Z,97501.13
2018-02-07T16:26:51.222Z,97500.82
2018-02-07T16:29:19.511Z,97502.84
2018-02-07T16:31:47.785Z,97507.42
2018-02-07T16:34:16.044Z,97504.45
2018-02-07T16:36:45.150Z,97510.13
2018-02-07T16:39:13.424Z,97516.09
2018-02-07T16:41:41.759Z,97509.77
2018-02-07T16:44:10.087Z,97511.64
2018-02-07T16:46:38.375Z,97521.64
2018-02-07T16:49:06.645Z,97526.63
2018-02-07T16:51:34.954Z,97534.06
2018-02-07T16:54:03.227Z,97533.86
2018-02-07T16:56:31.491Z,97536.64
2018-02-07T16:58:59.755Z,97539.23
2018-02-07T17:01:28.038Z,97545.54
2018-02-07T17:03:56.317Z,97551.53
2018-02-07T17:06:24.612Z,97550.89
2018-02-07T17:08:53.688Z,97549.61
2018-02-07T17:11:21.944Z,97561.35
2018-02-07T17:13:50.218Z,97560.97
2018-02-07T17:16:19.316Z,97569.80
2018-02-07T17:18:47.603Z,97558.59
2018-02-07T17:21:16.672Z,97566.19
2018-02-07T17:23:45.530Z,97570.02
2018-02-07T17:26:13.830Z,97571.02
2018-02-07T17:28:42.117Z,97574.86
2018-02-07T17:31:11.141Z,97578.97
2018-02-07T17:33:39.429Z,97588.86
2018-02-07T17:36:07.713Z,97595.14
2018-02-07T17:38:36.879Z,97599.70
2018-02-07T17:41:05.314Z,97600.13
2018-02-07T17:43:33.877Z,97603.50
2018-02-07T17:46:03.018Z,97605.27
2018-02-07T17:48:31.309Z,97606.62
2018-02-07T17:50:59.639Z,97608.06
2018-02-07T17:53:28.820Z,97614.95
2018-02-07T17:55:58.712Z,97615.34
2018-02-07T17:58:27.777Z,97611.49
2018-02-07T18:00:56.145Z,97623.99
2018-02-07T18:03:24.480Z,97620.11
2018-02-07T18:05:52.815Z,97626.83
2018-02-07T18:08:21.109Z,97629.36
2018-02-07T18:10:49.416Z,97626.19
2018-02-07T18:13:17.747Z,97631.23
2018-02-07T18:15:46.008Z,97631.30
2018-02-07T18:18:15.331Z,97636.11
2018-02-07T18:20:43.622Z,97633.39
2018-02-07T18:23:11.901Z,97629.31
2018-02-07T18:25:40.160Z,97632.38
2018-02-07T18:28:08.472Z,97635.70
2018-02-07T18:30:36.770Z,97636.33
2018-02-07T18:33:05.065Z,97632.52
2018-02-07T18:35:33.358Z,97638.36
2018-02-07T18:38:01.683Z,97642.09
2018-02-07T18:40:30.012Z,97641.13
2018-02-07T18:42:58.308Z,97643.00
2018-02-07T18:45:26.591Z,97642.03
2018-02-07T18:47:54.848Z,97646.08
2018-02-07T18:50:23.118Z,97648.34
2018-02-07T18:52:51.397Z,97637.14
2018-02-07T18:55:19.727Z,97651.88
2018-02-07T18:57:48.008Z,97655.73
2018-02-07T19:00:16.359Z,97653.03
2018-02-07T19:02:44.608Z,97653.84
2018-02-07T19:05:12.889Z,97662.44
2018-02-07T19:07:41.247Z,97657.55
2018-02-07T19:10:09.552Z,97662.70
2018-02-07T19:12:38.625Z,97659.88
2018-02-07T19:15:07.793Z,97665.72
2018-02-07T19:17:36.084Z,97665.25
2018-02-07T19:20:05.099Z,97664.13
2018-02-07T19:22:33.390Z,97673.06
2018-02-07T19:25:01.678Z,97670.73
2018-02-07T19:27:29.955Z,97670.27
2018-02-07T19:29:58.257Z,97671.61
2018-02-07T19:32:26.526Z,97667.48
2018-02-07T19:34:54.807Z,97678.22
2018-02-07T19:37:23.849Z,97673.70
2018-02-07T19:39:52.160Z,97678.36
2018-02-07T19:42:20.403Z,97674.70
2018-02-07T19:44:48.679Z,97681.86
2018-02-07T19:47:17.700Z,97680.84
2018-02-07T19:49:45.980Z,97682.27
2018-02-07T19:52:14.243Z,97688.00
2018-02-07T19:54:42.543Z,97690.67
2018-02-07T19:57:11.926Z,97688.00
2018-02-07T19:59:40.199Z,97680.43
2018-02-07T20:02:08.475Z,97681.19
2018-02-07T20:04:36.770Z,97682.09
2018-02-07T20:07:05.039Z,97693.30
2018-02-07T20:09:33.349Z,97691.92
2018-02-07T20:12:01.639Z,97697.89
2018-02-07T20:14:29.897Z,97695.05
2018-02-07T20:16:58.172Z,97695.68
2018-02-07T20:19:27.193Z,97688.14
2018-02-07T20:21:56.312Z,97704.12
2018-02-07T20:24:24.567Z,97699.52
2018-02-07T20:26:52.913Z,97696.09
2018-02-07T20:29:21.155Z,97700.13
2018-02-07T20:31:50.191Z,97702.31
2018-02-07T20:34:18.446Z,97706.33
2018-02-07T20:36:47.571Z,97711.11
2018-02-07T20:39:16.964Z,97707.12
2018-02-07T20:41:45.256Z,97708.84
2018-02-07T20:44:14.314Z,97713.00
2018-02-07T20:46:42.579Z,97710.47
2018-02-07T20:49:10.890Z,97714.51
2018-02-07T20:51:39.167Z,97714.51
2018-02-07T20:54:07.618Z,97712.84
2018-02-07T20:56:35.946Z,97714.85
2018-02-07T20:59:05.074Z,97716.14
2018-02-07T21:01:34.224Z,97717.45
2018-02-07T21:04:02.494Z,97719.14
2018-02-07T21:06:30.791Z,97721.70
2018-02-07T21:08:59.061Z,97719.95
2018-02-07T21:11:27.337Z,97722.37
2018-02-07T21:13:56.591Z,97727.29
2018-02-07T21:16:25.649Z,97722.23
2018-02-07T21:18:53.926Z,97724.52
2018-02-07T21:21:22.208Z,97723.91
2018-02-07T21:23:52.021Z,97727.61
2018-02-07T21:26:21.092Z,97729.25
2018-02-07T21:28:49.355Z,97727.73
2018-02-07T21:31:17.631Z,97724.56
2018-02-07T21:33:45.895Z,97728.11
2018-02-07T21:36:14.929Z,97731.40
2018-02-07T21:38:43.217Z,97728.84
2018-02-07T21:41:11.491Z,97729.28
2018-02-07T21:43:40.514Z,97729.45
2018-02-07T21:46:08.767Z,97732.21
2018-02-07T21:48:37.870Z,97740.98
2018-02-07T21:51:06.916Z,97732.74
2018-02-07T21:53:35.257Z,97735.09
2018-02-07T21:56:03.547Z,97751.28
2018-02-07T21:58:31.790Z,97736.02
2018-02-07T22:01:00.082Z,97739.20
2018-02-07T22:03:28.356Z,97739.69
2018-02-07T22:05:56.615Z,97740.20
2018-02-07T22:08:25.685Z,97743.70
2018-02-07T22:10:53.943Z,97747.69
2018-02-07T22:13:22.245Z,97747.80
2018-02-07T22:15:50.521Z,97745.50
2018-02-07T22:18:18.803Z,97734.85
2018-02-07T22:20:47.066Z,97738.68
2018-02-07T22:23:15.393Z,97736.12
2018-02-07T22:25:43.655Z,97735.03
2018-02-07T22:28:11.982Z,97732.21
2018-02-07T22:30:40.261Z,97740.53
2018-02-07T22:33:09.302Z,97738.98
2018-02-07T22:35:38.310Z,97740.16
2018-02-07T22:38:06.602Z,97743.70
2018-02-07T22:40:34.883Z,97748.25
2018-02-07T22:43:03.185Z,97745.39
2018-02-07T22:45:31.477Z,97749.00
2018-02-07T22:47:59.775Z,97749.39
2018-02-07T22:50:28.026Z,97751.89
2018-02-07T22:52:56.309Z,97758.22
2018-02-07T22:55:24.586Z,97758.63
2018-02-07T22:57:52.878Z,97770.21
2018-02-07T23:00:21.141Z,97769.16
2018-02-07T23:02:50.177Z,97772.36
2018-02-07T23:05:18.437Z,97770.73
2018-02-07T23:07:47.468Z,97783.52
2018-02-07T23:10:15.739Z,97775.08
2018-02-07T23:12:44.783Z,97785.33
2018-02-07T23:15:13.055Z,97794.05
2018-02-07T23:17:41.318Z,97780.88
2018-02-07T23:20:09.605Z,97779.04
2018-02-07T23:22:38.657Z,97787.17
2018-02-07T23:25:06.950Z,97779.88
2018-02-07T23:27:35.253Z,97783.47
2018-02-07T23:30:03.599Z,97782.02
2018-02-07T23:32:31.852Z,97792.07
2018-02-07T23:35:00.115Z,97780.37
2018-02-07T23:37:28.375Z,97783.33
2018-02-07T23:39:56.638Z,97779.17
2018-02-07T23:42:25.658Z,97781.20
2018-02-07T23:44:53.936Z,97779.23
2018-02-07T23:47:22.960Z,97786.74
2018-02-07T23:49:51.245Z,97783.94
2018-02-07T23:52:19.501Z,97792.48
2018-02-07T23:54:47.826Z,97791.03
2018-02-07T23:57:16.096Z,97794.62
2018-02-07T23:59:44.378Z,97794.88
